createdAt,value
2019-04-16T00:00:30.582Z,-0.8
2019-04-16T00:01:21.449Z,-0.8
2019-04-16T00:02:12.316Z,-0.8
2019-04-16T00:03:03.188Z,-0.7
2019-04-16T00:03:54.851Z,-0.7
2019-04-16T00:04:45.810Z,-0.7
2019-04-16T00:05:36.681Z,-0.8
2019-04-16T00:06:27.549Z,-0.8
2019-04-16T00:07:18.418Z,-0.8
2019-04-16T00:08:26.430Z,-0.9
2019-04-16T00:09:05.100Z,-0.9
2019-04-16T00:09:55.997Z,-0.9
2019-04-16T00:10:46.859Z,-1
2019-04-16T00:11:37.724Z,-1.1
2019-04-16T00:12:28.641Z,-1
2019-04-16T00:13:19.513Z,-1
2019-04-16T00:14:10.380Z,-1
2019-04-16T00:15:01.277Z,-0.9
2019-04-16T00:15:52.141Z,-0.8
2019-04-16T00:16:44.544Z,-0.8
2019-04-16T00:17:36.105Z,-0.8
2019-04-16T00:18:26.978Z,-0.9
2019-04-16T00:19:17.847Z,-0.9
2019-04-16T00:20:08.749Z,-0.8
2019-04-16T00:20:59.611Z,-0.7
2019-04-16T00:21:50.488Z,-0.7
2019-04-16T00:22:41.356Z,-0.7
2019-04-16T00:23:32.224Z,-0.6
2019-04-16T00:24:23.092Z,-0.6
2019-04-16T00:25:13.996Z,-0.6
2019-04-16T00:26:04.865Z,-0.6
2019-04-16T00:26:59.056Z,-0.8
2019-04-16T00:27:50.306Z,-0.8
2019-04-16T00:28:41.174Z,-0.9
2019-04-16T00:29:32.915Z,-0.9
2019-04-16T00:30:24.530Z,-0.9
2019-04-16T00:31:15.398Z,-1
2019-04-16T00:32:09.035Z,-0.9
2019-04-16T00:33:00.283Z,-0.8
2019-04-16T00:33:51.155Z,-0.7
2019-04-16T00:34:44.451Z,-0.7
2019-04-16T00:35:35.573Z,-0.8
2019-04-16T00:36:26.452Z,-0.9
2019-04-16T00:37:20.238Z,-0.9
2019-04-16T00:38:11.540Z,-0.9
2019-04-16T00:39:02.407Z,-1.1
2019-04-16T00:39:55.842Z,-1.1
2019-04-16T00:40:47.740Z,-1.1
2019-04-16T00:41:38.614Z,-0.9
2019-04-16T00:42:29.481Z,-0.9
2019-04-16T00:43:20.354Z,-0.8
2019-04-16T00:44:11.222Z,-0.9
2019-04-16T00:45:02.101Z,-0.9
2019-04-16T00:45:52.996Z,-0.9
2019-04-16T00:46:43.859Z,-1.1
2019-04-16T00:47:34.727Z,-1.1
2019-04-16T00:48:25.598Z,-1.1
2019-04-16T00:49:16.474Z,-0.9
2019-04-16T00:50:07.343Z,-1
2019-04-16T00:50:58.248Z,-1.1
2019-04-16T00:51:49.129Z,-0.9
2019-04-16T00:52:40.057Z,-1.1
2019-04-16T00:53:30.930Z,-1.3
2019-04-16T00:54:21.827Z,-1.3
2019-04-16T00:55:14.512Z,-1.2
2019-04-16T00:56:05.546Z,-1.2
2019-04-16T00:56:56.416Z,-1.2
2019-04-16T00:57:48.580Z,-1.2
2019-04-16T00:58:40.088Z,-1.3
2019-04-16T00:59:30.956Z,-1.3
2019-04-16T01:00:21.828Z,-1.3
2019-04-16T01:01:12.719Z,-1.3
2019-04-16T01:02:03.591Z,-1.1
2019-04-16T01:02:54.455Z,-0.9
2019-04-16T01:03:45.327Z,-0.9
2019-04-16T01:04:36.200Z,-0.8
2019-04-16T01:05:27.072Z,-0.7
2019-04-16T01:06:17.968Z,-0.9
2019-04-16T01:07:08.911Z,-0.9
2019-04-16T01:07:59.785Z,-1
2019-04-16T01:08:54.675Z,-1
2019-04-16T01:09:45.942Z,-0.9
2019-04-16T01:10:36.811Z,-1
2019-04-16T01:11:27.715Z,-0.9
2019-04-16T01:12:18.583Z,-0.9
2019-04-16T01:13:09.451Z,-0.8
2019-04-16T01:14:00.326Z,-0.9
2019-04-16T01:14:51.197Z,-0.8
2019-04-16T01:15:42.067Z,-0.9
2019-04-16T01:16:33.593Z,-0.9
2019-04-16T01:17:24.490Z,-0.9
2019-04-16T01:18:15.354Z,-0.9
2019-04-16T01:19:09.445Z,-1
2019-04-16T01:20:00.769Z,-0.9
2019-04-16T01:20:51.648Z,-1.1
2019-04-16T01:21:44.746Z,-1.1
2019-04-16T01:22:35.779Z,-1.1
2019-04-16T01:23:26.648Z,-1
2019-04-16T01:24:20.152Z,-1.1
2019-04-16T01:25:11.146Z,-1.2
2019-04-16T01:26:02.019Z,-1.1
2019-04-16T01:26:55.335Z,-1.2
2019-04-16T01:27:48.488Z,-1.2
2019-04-16T01:28:39.359Z,-1.1
2019-04-16T01:29:33.536Z,-1.1
2019-04-16T01:30:24.627Z,-1.2
2019-04-16T01:31:15.498Z,-1.3
2019-04-16T01:32:09.713Z,-1.2
2019-04-16T01:33:06.414Z,-1.2
2019-04-16T01:33:57.287Z,-1.1
2019-04-16T01:34:48.435Z,-1.1
2019-04-16T01:35:39.381Z,-1.1
2019-04-16T01:36:30.249Z,-1.3
2019-04-16T01:37:25.474Z,-1.3
2019-04-16T01:38:16.598Z,-1.3
2019-04-16T01:39:17.058Z,-1.3
2019-04-16T01:40:03.279Z,-1.3
2019-04-16T01:40:54.147Z,-1.3
2019-04-16T01:41:45.013Z,-1.4
2019-04-16T01:42:35.909Z,-1.4
2019-04-16T01:43:26.777Z,-1.3
2019-04-16T01:44:17.643Z,-1.1
2019-04-16T01:45:08.515Z,-1.2
2019-04-16T01:46:01.242Z,-1.1
2019-04-16T01:46:52.995Z,-1.3
2019-04-16T01:47:43.894Z,-1.4
2019-04-16T01:48:38.576Z,-1.4
2019-04-16T01:49:29.742Z,-1.6
2019-04-16T01:50:20.615Z,-1.6
2019-04-16T01:51:12.553Z,-1.4
2019-04-16T01:52:05.948Z,-1.4
2019-04-16T01:52:56.814Z,-1.4
2019-04-16T01:53:49.364Z,-1.3
2019-04-16T01:54:42.728Z,-1.3
2019-04-16T01:55:33.593Z,-1.4
2019-04-16T01:56:27.665Z,-1.4
2019-04-16T01:57:18.986Z,-1.5
2019-04-16T01:58:09.854Z,-1.4
2019-04-16T01:59:04.497Z,-1.5
2019-04-16T01:59:55.595Z,-1.4
2019-04-16T02:00:46.458Z,-1.5
2019-04-16T02:01:37.450Z,-1.5
2019-04-16T02:02:28.343Z,-1.6
2019-04-16T02:03:19.212Z,-1.6
2019-04-16T02:04:10.079Z,-1.6
2019-04-16T02:05:01.103Z,-1.5
2019-04-16T02:05:54.542Z,-1.4
2019-04-16T02:06:45.761Z,-1.4
2019-04-16T02:07:36.661Z,-1.4
2019-04-16T02:08:28.253Z,-1.5
2019-04-16T02:09:22.873Z,-1.5
2019-04-16T02:10:13.971Z,-1.5
2019-04-16T02:11:09.523Z,-1.6
2019-04-16T02:12:00.647Z,-1.4
2019-04-16T02:12:51.566Z,-1.5
2019-04-16T02:13:45.733Z,-1.4
2019-04-16T02:14:36.864Z,-1.4
2019-04-16T02:15:27.731Z,-1.6
2019-04-16T02:16:18.598Z,-1.7
2019-04-16T02:17:09.475Z,-1.6
2019-04-16T02:18:00.372Z,-1.9
2019-04-16T02:18:51.247Z,-1.8
2019-04-16T02:19:42.118Z,-1.8
2019-04-16T02:20:32.996Z,-1.9
2019-04-16T02:21:23.864Z,-1.9
2019-04-16T02:22:14.852Z,-1.9
2019-04-16T02:23:05.719Z,-2
2019-04-16T02:23:56.623Z,-2
2019-04-16T02:24:48.564Z,-2
2019-04-16T02:25:39.514Z,-1.9
2019-04-16T02:26:30.382Z,-1.9
2019-04-16T02:27:23.416Z,-2
2019-04-16T02:28:16.860Z,-2.1
2019-04-16T02:29:07.732Z,-2
2019-04-16T02:30:02.291Z,-1.9
2019-04-16T02:30:54.408Z,-1.9
2019-04-16T02:31:47.825Z,-1.9
2019-04-16T02:32:41.092Z,-1.9
2019-04-16T02:33:31.994Z,-1.9
2019-04-16T02:34:22.865Z,-1.8
2019-04-16T02:35:13.738Z,-1.7
2019-04-16T02:36:04.605Z,-1.8
2019-04-16T02:37:00.245Z,-1.9
2019-04-16T02:37:51.288Z,-1.7
2019-04-16T02:38:45.670Z,-1.8
2019-04-16T02:39:48.908Z,-1.8
2019-04-16T02:40:33.802Z,-1.8
2019-04-16T02:41:24.810Z,-1.9
2019-04-16T02:42:15.700Z,-1.9
2019-04-16T02:43:07.930Z,-1.9
2019-04-16T02:43:59.107Z,-2
2019-04-16T02:44:50.429Z,-1.9
2019-04-16T02:45:41.367Z,-1.9
2019-04-16T02:46:32.793Z,-1.9
2019-04-16T02:47:23.780Z,-1.9
2019-04-16T02:48:16.987Z,-2.2
2019-04-16T02:49:08.110Z,-2.2
2019-04-16T02:49:58.986Z,-2.2
2019-04-16T02:50:49.869Z,-2.3
2019-04-16T02:51:41.683Z,-2.3
2019-04-16T02:52:32.652Z,-2.3
2019-04-16T02:53:24.467Z,-2.2
2019-04-16T02:54:16.158Z,-2.2
2019-04-16T02:55:08.928Z,-2.2
2019-04-16T02:56:01.530Z,-2.1
2019-04-16T02:56:53.078Z,-2.1
2019-04-16T02:57:44.006Z,-2.1
2019-04-16T02:58:35.312Z,-2.2
2019-04-16T02:59:26.304Z,-2.1
2019-04-16T03:00:18.354Z,-2
2019-04-16T03:01:09.364Z,-2.2
2019-04-16T03:02:00.232Z,-2.2
2019-04-16T03:02:53.562Z,-2.2
2019-04-16T03:03:44.741Z,-2.2
2019-04-16T03:04:35.702Z,-2
2019-04-16T03:05:28.956Z,-2.1
2019-04-16T03:06:19.995Z,-1.9
2019-04-16T03:07:10.862Z,-1.9
2019-04-16T03:08:04.590Z,-2.1
2019-04-16T03:08:55.994Z,-2.1
2019-04-16T03:10:00.209Z,-2
2019-04-16T03:10:44.585Z,-2.1
2019-04-16T03:11:36.122Z,-2.2
2019-04-16T03:12:26.997Z,-2.2
2019-04-16T03:13:22.967Z,-2.1
2019-04-16T03:14:13.677Z,-2
2019-04-16T03:15:04.576Z,-2.1
2019-04-16T03:15:55.447Z,-2.1
2019-04-16T03:16:46.317Z,-2.1
2019-04-16T03:17:39.475Z,-2.1
2019-04-16T03:18:33.006Z,-2.2
2019-04-16T03:19:23.881Z,-2.1
2019-04-16T03:20:14.781Z,-2.2
2019-04-16T03:21:05.651Z,-2.2
2019-04-16T03:21:59.017Z,-2.2
2019-04-16T03:22:50.112Z,-2.3
2019-04-16T03:23:40.985Z,-2.3
2019-04-16T03:24:31.864Z,-2.1
2019-04-16T03:25:22.783Z,-2
2019-04-16T03:26:17.463Z,-2
2019-04-16T03:27:08.696Z,-2.1
2019-04-16T03:27:59.569Z,-2.1
2019-04-16T03:28:50.437Z,-2.1
2019-04-16T03:29:41.303Z,-2.2
2019-04-16T03:30:40.012Z,-2.1
2019-04-16T03:31:28.019Z,-2.1
2019-04-16T03:32:18.898Z,-2.1
2019-04-16T03:33:13.016Z,-2.2
2019-04-16T03:34:04.851Z,-2.1
2019-04-16T03:34:55.723Z,-2.2
2019-04-16T03:35:46.625Z,-2.2
2019-04-16T03:36:37.491Z,-2.3
2019-04-16T03:37:30.207Z,-2.4
2019-04-16T03:38:21.179Z,-2.4
2019-04-16T03:39:13.762Z,-2.3
2019-04-16T03:40:15.696Z,-2.4
2019-04-16T03:41:00.654Z,-2.4
2019-04-16T03:41:55.897Z,-2.3
2019-04-16T03:42:46.975Z,-2.1
2019-04-16T03:43:37.843Z,-2.1
2019-04-16T03:44:28.714Z,-2.1
2019-04-16T03:45:19.589Z,-2.1
2019-04-16T03:46:12.700Z,-2.2
2019-04-16T03:47:04.765Z,-2.2
2019-04-16T03:47:55.638Z,-2.3
2019-04-16T03:48:46.522Z,-2.2
2019-04-16T03:49:37.398Z,-2.4
2019-04-16T03:50:30.994Z,-2.4
2019-04-16T03:51:22.294Z,-2.5
2019-04-16T03:52:13.168Z,-2.4
2019-04-16T03:53:04.034Z,-2.1
2019-04-16T03:53:54.903Z,-2.4
2019-04-16T03:54:45.772Z,-2.4
2019-04-16T03:55:36.640Z,-2.5
2019-04-16T03:56:30.484Z,-2.6
2019-04-16T03:57:22.025Z,-2.6
2019-04-16T03:58:12.896Z,-2.6
2019-04-16T03:59:03.766Z,-2.6
2019-04-16T03:59:54.635Z,-2.6
2019-04-16T04:00:45.572Z,-2.6
2019-04-16T04:01:36.448Z,-2.6
2019-04-16T04:02:27.318Z,-2.6
2019-04-16T04:03:18.188Z,-2.5
2019-04-16T04:04:09.155Z,-2.6
2019-04-16T04:05:01.091Z,-2.7
2019-04-16T04:05:53.900Z,-2.9
2019-04-16T04:06:44.891Z,-2.9
2019-04-16T04:07:35.761Z,-2.9
2019-04-16T04:08:26.629Z,-2.9
2019-04-16T04:09:18.816Z,-2.9
2019-04-16T04:10:12.734Z,-2.9
2019-04-16T04:11:08.831Z,-2.9
2019-04-16T04:11:59.480Z,-2.9
2019-04-16T04:12:50.355Z,-2.9
2019-04-16T04:13:41.231Z,-2.9
2019-04-16T04:14:32.105Z,-2.7
2019-04-16T04:15:25.684Z,-2.7
2019-04-16T04:16:17.122Z,-2.7
2019-04-16T04:17:07.996Z,-2.7
2019-04-16T04:17:58.864Z,-2.7
2019-04-16T04:18:49.748Z,-2.8
2019-04-16T04:19:40.628Z,-2.7
2019-04-16T04:20:34.216Z,-2.7
2019-04-16T04:21:25.112Z,-2.6
2019-04-16T04:22:15.976Z,-2.6
2019-04-16T04:23:06.866Z,-2.6
2019-04-16T04:24:00.599Z,-2.6
2019-04-16T04:24:51.727Z,-2.6
2019-04-16T04:25:42.595Z,-2.7
2019-04-16T04:26:33.490Z,-2.6
2019-04-16T04:27:24.469Z,-2.4
2019-04-16T04:28:18.419Z,-2.5
2019-04-16T04:29:09.905Z,-2.4
2019-04-16T04:30:00.779Z,-2.2
2019-04-16T04:30:51.647Z,-2.3
2019-04-16T04:31:42.548Z,-2.4
2019-04-16T04:32:35.346Z,-2.3
2019-04-16T04:33:26.369Z,-2.3
2019-04-16T04:34:17.767Z,-2.4
2019-04-16T04:35:08.759Z,-2.4
2019-04-16T04:35:59.630Z,-2.2
2019-04-16T04:36:50.531Z,-2.1
2019-04-16T04:37:41.437Z,-2
2019-04-16T04:38:33.536Z,-2
2019-04-16T04:39:27.859Z,-2
2019-04-16T04:40:18.773Z,-2
2019-04-16T04:41:09.771Z,-2
2019-04-16T04:42:00.700Z,-1.9
2019-04-16T04:42:51.578Z,-2
2019-04-16T04:43:42.460Z,-1.9
2019-04-16T04:44:33.563Z,-1.9
2019-04-16T04:45:27.058Z,-1.9
2019-04-16T04:46:17.929Z,-1.9
2019-04-16T04:47:08.839Z,-1.9
2019-04-16T04:47:59.828Z,-1.8
2019-04-16T04:48:54.892Z,-1.8
2019-04-16T04:49:46.134Z,-1.8
2019-04-16T04:50:37.003Z,-1.8
2019-04-16T04:51:27.879Z,-1.6
2019-04-16T04:52:18.776Z,-1.5
2019-04-16T04:53:09.650Z,-1.5
2019-04-16T04:54:00.520Z,-1.5
2019-04-16T04:54:54.059Z,-1.4
2019-04-16T04:55:44.970Z,-1.4
2019-04-16T04:56:35.832Z,-1.4
2019-04-16T04:57:28.366Z,-1.4
2019-04-16T04:58:21.739Z,-1.4
2019-04-16T04:59:12.707Z,-1.5
2019-04-16T05:00:05.549Z,-1.5
2019-04-16T05:00:58.785Z,-1.4
2019-04-16T05:01:49.649Z,-1.3
2019-04-16T05:02:43.140Z,-1.3
2019-04-16T05:03:34.677Z,-1.3
2019-04-16T05:04:25.559Z,-1.3
2019-04-16T05:05:16.433Z,-1.3
2019-04-16T05:06:07.300Z,-1.3
2019-04-16T05:06:58.167Z,-1.1
2019-04-16T05:07:49.068Z,-1.1
2019-04-16T05:08:39.939Z,-1
2019-04-16T05:09:35.163Z,-1.1
2019-04-16T05:10:26.517Z,-1.1
2019-04-16T05:11:17.574Z,-1
2019-04-16T05:12:08.660Z,-1
2019-04-16T05:12:59.604Z,-0.9
2019-04-16T05:13:56.287Z,-0.9
2019-04-16T05:14:47.847Z,-0.9
2019-04-16T05:15:38.720Z,-0.9
2019-04-16T05:16:31.445Z,-0.9
2019-04-16T05:17:24.807Z,-0.9
2019-04-16T05:18:15.796Z,-0.8
2019-04-16T05:19:06.681Z,-0.7
2019-04-16T05:19:57.551Z,-0.6
2019-04-16T05:20:48.422Z,-0.6
2019-04-16T05:21:39.292Z,-0.6
2019-04-16T05:22:32.799Z,-0.5
2019-04-16T05:23:25.637Z,-0.5
2019-04-16T05:24:16.845Z,-0.5
2019-04-16T05:25:07.715Z,-0.5
2019-04-16T05:25:58.589Z,-0.4
2019-04-16T05:26:49.461Z,-0.4
2019-04-16T05:27:41.383Z,-0.4
2019-04-16T05:28:32.427Z,-0.3
2019-04-16T05:29:23.298Z,-0.2
2019-04-16T05:30:14.340Z,-0.3
2019-04-16T05:31:05.224Z,-0.3
2019-04-16T05:31:57.254Z,-0.2
2019-04-16T05:32:48.411Z,-0.1
2019-04-16T05:33:39.303Z,-0.1
2019-04-16T05:34:30.184Z,0.1
2019-04-16T05:35:21.056Z,0.2
2019-04-16T05:36:14.127Z,0.3
2019-04-16T05:37:05.986Z,0.3
2019-04-16T05:37:56.858Z,0.3
2019-04-16T05:38:47.759Z,0.4
2019-04-16T05:39:38.626Z,0.3
2019-04-16T05:40:34.190Z,0.4
2019-04-16T05:41:25.516Z,0.4
2019-04-16T05:42:16.455Z,0.4
2019-04-16T05:43:07.320Z,0.6
2019-04-16T05:43:58.356Z,0.6
2019-04-16T05:44:51.759Z,0.6
2019-04-16T05:45:42.626Z,0.6
2019-04-16T05:46:33.500Z,0.7
2019-04-16T05:47:24.365Z,0.8
2019-04-16T05:48:15.397Z,0.9
2019-04-16T05:49:06.382Z,0.9
2019-04-16T05:49:57.868Z,0.9
2019-04-16T05:50:49.608Z,0.9
2019-04-16T05:51:40.526Z,1
2019-04-16T05:52:32.224Z,1
2019-04-16T05:53:26.355Z,1
2019-04-16T05:54:17.255Z,1
2019-04-16T05:55:08.122Z,1
2019-04-16T05:55:58.985Z,1.1
2019-04-16T05:56:52.318Z,1.1
2019-04-16T05:57:45.543Z,1.1
2019-04-16T05:58:36.415Z,1.3
2019-04-16T05:59:27.317Z,1.8
2019-04-16T06:00:18.288Z,2.6
2019-04-16T06:01:10.398Z,3.8
2019-04-16T06:02:03.803Z,4.9
2019-04-16T06:02:54.680Z,4.9
2019-04-16T06:03:45.551Z,4.9
2019-04-16T06:04:36.448Z,4.9
2019-04-16T06:05:28.111Z,4.9
2019-04-16T06:06:19.028Z,4.9
2019-04-16T06:07:09.896Z,4.9
2019-04-16T06:08:00.770Z,4.9
2019-04-16T06:08:51.636Z,4.9
2019-04-16T06:09:44.365Z,4.9
2019-04-16T06:10:35.416Z,4.9
2019-04-16T06:11:28.923Z,4.9
2019-04-16T06:12:20.760Z,4.9
2019-04-16T06:13:12.579Z,5
2019-04-16T06:14:03.756Z,5
2019-04-16T06:14:54.665Z,5
2019-04-16T06:15:45.538Z,5
2019-04-16T06:16:36.406Z,5
2019-04-16T06:17:31.705Z,5
2019-04-16T06:18:22.907Z,5
2019-04-16T06:19:13.782Z,5
2019-04-16T06:20:04.689Z,5
2019-04-16T06:20:55.556Z,5
2019-04-16T06:21:46.430Z,5
2019-04-16T06:22:37.302Z,5
2019-04-16T06:23:31.673Z,5
2019-04-16T06:24:23.486Z,5
2019-04-16T06:25:14.389Z,5
2019-04-16T06:26:05.260Z,5
2019-04-16T06:26:56.133Z,5
2019-04-16T06:27:47.000Z,5.1
2019-04-16T06:28:37.867Z,5.1
2019-04-16T06:29:29.416Z,5.1
2019-04-16T06:30:20.385Z,5.1
2019-04-16T06:31:11.258Z,5.1
2019-04-16T06:32:02.128Z,5.1
2019-04-16T06:32:53.089Z,5.1
2019-04-16T06:33:43.962Z,5.1
2019-04-16T06:34:34.829Z,5.1
2019-04-16T06:35:25.722Z,5.1
2019-04-16T06:36:16.603Z,5.1
2019-04-16T06:37:07.479Z,5.1
2019-04-16T06:37:58.352Z,5.2
2019-04-16T06:38:49.244Z,5.2
2019-04-16T06:39:40.110Z,5.2
2019-04-16T06:40:32.551Z,5.2
2019-04-16T06:41:23.603Z,5.2
2019-04-16T06:42:14.475Z,5.2
2019-04-16T06:43:05.342Z,5.2
2019-04-16T06:43:59.234Z,5.2
2019-04-16T06:44:50.438Z,5.2
2019-04-16T06:45:41.329Z,5.2
2019-04-16T06:46:32.201Z,5.2
2019-04-16T06:47:23.069Z,5.2
2019-04-16T06:48:14.002Z,5.3
2019-04-16T06:49:04.882Z,5.3
2019-04-16T06:49:55.752Z,5.3
2019-04-16T06:50:46.649Z,5.3
2019-04-16T06:51:38.613Z,5.3
2019-04-16T06:52:31.330Z,5.4
2019-04-16T06:53:23.463Z,5.3
2019-04-16T06:54:14.818Z,5.4
2019-04-16T06:55:05.702Z,5.4
2019-04-16T06:55:56.595Z,5.4
2019-04-16T06:56:50.263Z,5.4
2019-04-16T06:57:42.835Z,5.4
2019-04-16T06:58:50.111Z,5.4
2019-04-16T06:59:30.853Z,5.4
2019-04-16T07:00:21.796Z,5.4
2019-04-16T07:01:12.684Z,5.4
2019-04-16T07:02:03.550Z,5.4
2019-04-16T07:03:02.068Z,5.4
2019-04-16T07:03:50.235Z,5.4
2019-04-16T07:04:41.105Z,5.4
2019-04-16T07:05:33.138Z,5.4
2019-04-16T07:06:24.109Z,5.4
2019-04-16T07:07:15.012Z,5.4
2019-04-16T07:08:05.903Z,5.4
2019-04-16T07:08:56.784Z,5.4
2019-04-16T07:09:47.649Z,5.4
2019-04-16T07:10:44.542Z,5.4
2019-04-16T07:11:34.359Z,5.4
2019-04-16T07:12:25.267Z,5.5
2019-04-16T07:13:16.183Z,5.5
2019-04-16T07:14:07.047Z,5.5
2019-04-16T07:14:58.019Z,5.5
2019-04-16T07:15:48.887Z,5.5
2019-04-16T07:16:39.782Z,5.5
2019-04-16T07:17:33.566Z,5.5
2019-04-16T07:18:25.282Z,5.5
2019-04-16T07:19:16.941Z,5.5
2019-04-16T07:20:12.993Z,5.5
2019-04-16T07:21:03.964Z,5.5
2019-04-16T07:21:54.860Z,5.5
2019-04-16T07:22:45.731Z,5.5
2019-04-16T07:23:37.016Z,5.5
2019-04-16T07:24:30.516Z,5.5
2019-04-16T07:25:24.961Z,5.6
2019-04-16T07:26:17.614Z,5.6
2019-04-16T07:27:08.682Z,5.6
2019-04-16T07:27:59.549Z,5.6
2019-04-16T07:28:50.419Z,5.6
2019-04-16T07:29:41.438Z,5.6
2019-04-16T07:30:32.343Z,5.6
2019-04-16T07:31:32.536Z,5.6
2019-04-16T07:32:19.275Z,5.6
2019-04-16T07:33:10.156Z,5.6
2019-04-16T07:34:01.025Z,5.6
2019-04-16T07:34:51.902Z,5.6
2019-04-16T07:35:42.836Z,5.7
2019-04-16T07:36:33.750Z,5.7
2019-04-16T07:37:24.647Z,5.7
2019-04-16T07:38:15.517Z,5.7
2019-04-16T07:39:06.501Z,5.7
2019-04-16T07:39:57.427Z,5.7
2019-04-16T07:40:48.296Z,5.7
2019-04-16T07:41:42.691Z,5.8
2019-04-16T07:42:34.060Z,5.8
2019-04-16T07:43:24.925Z,5.8
2019-04-16T07:44:15.791Z,5.8
2019-04-16T07:45:11.326Z,5.8
2019-04-16T07:46:02.477Z,5.8
2019-04-16T07:46:53.344Z,5.8
2019-04-16T07:47:44.237Z,5.8
2019-04-16T07:48:35.102Z,5.8
2019-04-16T07:49:26.353Z,5.8
2019-04-16T07:50:17.914Z,5.8
2019-04-16T07:51:08.781Z,5.8
2019-04-16T07:51:59.650Z,5.8
2019-04-16T07:52:50.543Z,5.9
2019-04-16T07:53:41.413Z,5.9
2019-04-16T07:54:32.282Z,5.9
2019-04-16T07:55:23.601Z,5.9
2019-04-16T07:56:14.666Z,5.9
2019-04-16T07:57:05.574Z,5.9
2019-04-16T07:57:56.478Z,5.9
2019-04-16T07:58:47.343Z,5.9
2019-04-16T07:59:38.229Z,5.9
2019-04-16T08:00:29.100Z,5.9
2019-04-16T08:01:19.970Z,5.9
2019-04-16T08:02:10.837Z,5.9
2019-04-16T08:03:01.740Z,5.9
2019-04-16T08:03:52.605Z,6
2019-04-16T08:04:43.479Z,6
2019-04-16T08:05:34.346Z,6
2019-04-16T08:06:25.218Z,6
2019-04-16T08:07:20.055Z,6.1
2019-04-16T08:08:11.271Z,6.1
2019-04-16T08:09:02.154Z,6.1
2019-04-16T08:09:53.031Z,6.1
2019-04-16T08:10:43.913Z,6.1
2019-04-16T08:11:34.782Z,6.1
2019-04-16T08:12:30.221Z,6.1
2019-04-16T08:13:21.481Z,6.2
2019-04-16T08:14:14.588Z,6.2
2019-04-16T08:15:13.211Z,6.2
2019-04-16T08:16:01.430Z,6.2
2019-04-16T08:16:52.303Z,6.2
2019-04-16T08:17:43.292Z,6.2
2019-04-16T08:18:34.192Z,6.2
2019-04-16T08:19:35.964Z,6.2
2019-04-16T08:20:21.323Z,6.2
2019-04-16T08:21:12.516Z,6.2
2019-04-16T08:22:03.455Z,6.2
2019-04-16T08:22:54.362Z,6.2
2019-04-16T08:23:45.262Z,6.2
2019-04-16T08:24:36.135Z,6.2
2019-04-16T08:25:27.064Z,6.3
2019-04-16T08:26:17.952Z,6.3
2019-04-16T08:27:10.181Z,6.3
2019-04-16T08:28:01.633Z,6.3
2019-04-16T08:28:52.529Z,6.4
2019-04-16T08:29:43.412Z,6.4
2019-04-16T08:30:37.196Z,6.4
2019-04-16T08:31:30.051Z,6.4
2019-04-16T08:32:20.922Z,6.4
2019-04-16T08:33:11.863Z,6.4
2019-04-16T08:34:02.775Z,6.4
2019-04-16T08:34:53.643Z,6.4
2019-04-16T08:35:44.515Z,6.4
2019-04-16T08:36:35.391Z,6.4
2019-04-16T08:37:26.261Z,6.5
2019-04-16T08:38:17.208Z,6.5
2019-04-16T08:39:08.214Z,6.5
2019-04-16T08:39:59.105Z,6.5
2019-04-16T08:40:49.999Z,6.5
2019-04-16T08:41:40.877Z,6.5
2019-04-16T08:42:43.823Z,6.5
2019-04-16T08:43:29.517Z,6.6
2019-04-16T08:44:20.644Z,6.6
2019-04-16T08:45:11.510Z,6.6
2019-04-16T08:46:02.387Z,6.6
2019-04-16T08:46:53.258Z,6.6
2019-04-16T08:47:46.090Z,6.6
2019-04-16T08:48:37.024Z,6.6
2019-04-16T08:49:27.921Z,6.6
2019-04-16T08:50:18.802Z,6.6
2019-04-16T08:51:09.668Z,6.6
2019-04-16T08:52:00.554Z,6.6
2019-04-16T08:52:51.431Z,6.6
2019-04-16T08:53:47.378Z,6.6
2019-04-16T08:54:38.300Z,6.7
2019-04-16T08:55:29.192Z,6.6
2019-04-16T08:56:20.056Z,6.7
2019-04-16T08:57:10.926Z,6.7
2019-04-16T08:58:05.723Z,6.7
2019-04-16T08:59:00.535Z,6.7
2019-04-16T08:59:51.840Z,6.7
2019-04-16T09:00:45.883Z,6.7
2019-04-16T09:01:38.195Z,6.7
2019-04-16T09:02:29.061Z,6.7
2019-04-16T09:03:19.940Z,6.7
2019-04-16T09:04:10.836Z,6.7
2019-04-16T09:05:05.827Z,6.7
2019-04-16T09:05:56.949Z,6.7
2019-04-16T09:06:47.816Z,6.8
2019-04-16T09:07:38.681Z,6.8
2019-04-16T09:08:29.558Z,6.8
2019-04-16T09:09:24.269Z,6.8
2019-04-16T09:10:17.979Z,6.8
2019-04-16T09:11:22.137Z,6.9
2019-04-16T09:12:08.797Z,6.9
2019-04-16T09:13:03.651Z,6.9
2019-04-16T09:13:55.435Z,6.9
2019-04-16T09:14:46.343Z,6.9
2019-04-16T09:15:37.210Z,6.9
2019-04-16T09:16:28.097Z,6.9
2019-04-16T09:17:18.969Z,6.9
2019-04-16T09:18:09.844Z,6.9
2019-04-16T09:19:00.713Z,7
2019-04-16T09:19:51.624Z,7
2019-04-16T09:20:42.658Z,7
2019-04-16T09:21:33.601Z,7
2019-04-16T09:22:24.485Z,7
2019-04-16T09:23:15.356Z,7.1
2019-04-16T09:24:08.735Z,7.1
2019-04-16T09:25:00.261Z,7.1
2019-04-16T09:25:51.130Z,7.1
2019-04-16T09:26:43.776Z,7.1
2019-04-16T09:27:34.727Z,7.1
2019-04-16T09:28:26.335Z,7.1
2019-04-16T09:29:17.301Z,7.1
2019-04-16T09:30:10.149Z,7.1
2019-04-16T09:31:01.557Z,7.2
2019-04-16T09:31:55.266Z,7.2
2019-04-16T09:32:47.031Z,7.2
2019-04-16T09:33:37.914Z,7.2
2019-04-16T09:34:28.789Z,7.2
2019-04-16T09:35:20.370Z,7.2
2019-04-16T09:36:11.343Z,7.2
2019-04-16T09:37:02.208Z,7.2
2019-04-16T09:37:53.085Z,7.2
2019-04-16T09:38:45.450Z,7.2
2019-04-16T09:39:37.133Z,7.3
2019-04-16T09:40:28.029Z,7.3
2019-04-16T09:41:18.899Z,7.3
2019-04-16T09:42:09.772Z,7.3
2019-04-16T09:43:00.649Z,7.3
2019-04-16T09:43:53.598Z,7.3
2019-04-16T09:44:47.333Z,7.4
2019-04-16T09:45:38.223Z,7.4
2019-04-16T09:46:49.436Z,7.4
2019-04-16T09:47:24.907Z,7.4
2019-04-16T09:48:15.786Z,7.4
2019-04-16T09:49:06.657Z,7.4
2019-04-16T09:49:57.533Z,7.4
2019-04-16T09:50:48.441Z,7.4
2019-04-16T09:51:39.304Z,7.4
2019-04-16T09:52:30.169Z,7.4
2019-04-16T09:53:32.478Z,7.4
2019-04-16T09:54:16.847Z,7.4
2019-04-16T09:55:07.713Z,7.4
2019-04-16T09:55:58.615Z,7.4
2019-04-16T09:56:49.484Z,7.4
2019-04-16T09:57:40.391Z,7.5
2019-04-16T09:58:31.258Z,7.5
2019-04-16T09:59:22.126Z,7.5
2019-04-16T10:00:13.016Z,7.5
2019-04-16T10:01:03.912Z,7.6
2019-04-16T10:01:54.780Z,7.6
2019-04-16T10:02:45.793Z,7.6
2019-04-16T10:03:36.735Z,7.6
2019-04-16T10:04:27.597Z,7.6
2019-04-16T10:05:18.463Z,7.6
2019-04-16T10:06:09.376Z,7.6
2019-04-16T10:07:00.246Z,7.6
2019-04-16T10:07:51.136Z,7.6
2019-04-16T10:08:44.898Z,7.6
2019-04-16T10:09:36.467Z,7.6
2019-04-16T10:10:27.828Z,7.7
2019-04-16T10:11:19.836Z,7.7
2019-04-16T10:12:10.708Z,7.7
2019-04-16T10:13:01.576Z,7.7
2019-04-16T10:13:52.451Z,7.7
2019-04-16T10:14:43.318Z,7.7
2019-04-16T10:15:34.204Z,7.7
2019-04-16T10:16:25.165Z,7.7
2019-04-16T10:17:16.248Z,7.7
2019-04-16T10:18:07.128Z,7.7
2019-04-16T10:18:58.006Z,7.7
2019-04-16T10:19:48.896Z,7.7
2019-04-16T10:20:40.409Z,7.7
2019-04-16T10:21:31.387Z,7.7
2019-04-16T10:22:22.299Z,7.7
2019-04-16T10:23:13.182Z,7.7
2019-04-16T10:24:04.062Z,7.7
2019-04-16T10:24:54.937Z,7.8
2019-04-16T10:25:45.820Z,7.8
2019-04-16T10:26:36.759Z,7.8
2019-04-16T10:27:31.173Z,7.8
2019-04-16T10:28:22.495Z,7.8
2019-04-16T10:29:14.201Z,7.8
2019-04-16T10:30:05.074Z,7.8
2019-04-16T10:30:55.959Z,7.9
2019-04-16T10:31:46.879Z,7.9
2019-04-16T10:32:37.749Z,7.9
2019-04-16T10:33:28.618Z,7.9
2019-04-16T10:34:19.515Z,7.9
2019-04-16T10:35:10.391Z,7.9
2019-04-16T10:36:04.539Z,7.9
2019-04-16T10:36:56.684Z,7.9
2019-04-16T10:37:47.579Z,7.9
2019-04-16T10:38:38.451Z,7.9
2019-04-16T10:39:29.330Z,7.9
2019-04-16T10:40:20.330Z,7.9
2019-04-16T10:41:11.218Z,7.9
2019-04-16T10:42:02.108Z,8
2019-04-16T10:42:52.982Z,8
2019-04-16T10:43:45.092Z,8
2019-04-16T10:44:36.208Z,8
2019-04-16T10:45:27.155Z,8
2019-04-16T10:46:18.025Z,8
2019-04-16T10:47:08.947Z,8
2019-04-16T10:47:59.818Z,8
2019-04-16T10:48:50.721Z,8
2019-04-16T10:49:41.597Z,8.1
2019-04-16T10:50:32.562Z,8.1
2019-04-16T10:51:23.454Z,8.1
2019-04-16T10:52:14.358Z,8.1
2019-04-16T10:53:05.250Z,8.1
2019-04-16T10:53:56.118Z,8.1
2019-04-16T10:54:47.030Z,8.1
2019-04-16T10:55:37.902Z,8.1
2019-04-16T10:56:28.778Z,8.1
2019-04-16T10:57:19.688Z,8.1
2019-04-16T10:58:10.617Z,8.1
2019-04-16T10:59:01.493Z,8.2
2019-04-16T10:59:52.483Z,8.2
2019-04-16T11:00:43.374Z,8.2
2019-04-16T11:01:35.095Z,8.2
2019-04-16T11:02:28.701Z,8.2
2019-04-16T11:03:19.707Z,8.2
2019-04-16T11:04:10.576Z,8.2
2019-04-16T11:05:02.826Z,8.2
2019-04-16T11:05:56.928Z,8.2
2019-04-16T11:06:48.982Z,8.2
2019-04-16T11:07:39.873Z,8.3
2019-04-16T11:08:30.746Z,8.3
2019-04-16T11:09:21.619Z,8.3
2019-04-16T11:10:12.520Z,8.3
2019-04-16T11:11:03.398Z,8.3
2019-04-16T11:11:54.276Z,8.3
2019-04-16T11:12:45.173Z,8.3
2019-04-16T11:13:36.091Z,8.3
2019-04-16T11:14:26.956Z,8.3
2019-04-16T11:15:17.858Z,8.3
2019-04-16T11:16:08.733Z,8.3
2019-04-16T11:16:59.594Z,8.3
2019-04-16T11:17:50.583Z,8.3
2019-04-16T11:18:42.480Z,8.3
2019-04-16T11:19:33.346Z,8.3
2019-04-16T11:20:24.226Z,8.3
2019-04-16T11:21:15.099Z,8.3
2019-04-16T11:22:05.972Z,8.3
2019-04-16T11:22:56.903Z,8.3
2019-04-16T11:23:47.793Z,8.3
2019-04-16T11:24:39.455Z,8.4
2019-04-16T11:25:30.383Z,8.4
2019-04-16T11:26:21.366Z,8.4
2019-04-16T11:27:12.308Z,8.4
2019-04-16T11:28:03.207Z,8.4
2019-04-16T11:28:54.075Z,8.4
2019-04-16T11:29:44.947Z,8.4
2019-04-16T11:30:35.836Z,8.4
2019-04-16T11:31:26.727Z,8.4
2019-04-16T11:32:17.607Z,8.4
2019-04-16T11:33:08.524Z,8.4
2019-04-16T11:33:59.419Z,8.4
2019-04-16T11:34:50.295Z,8.4
2019-04-16T11:35:41.214Z,8.4
2019-04-16T11:36:32.100Z,8.4
2019-04-16T11:37:22.971Z,8.4
2019-04-16T11:38:17.139Z,8.4
2019-04-16T11:39:08.501Z,8.4
2019-04-16T11:39:59.368Z,8.4
2019-04-16T11:40:50.298Z,8.4
2019-04-16T11:41:41.169Z,8.4
2019-04-16T11:42:32.056Z,8.4